Terminal Aerodrome Forecast
Issued by NWS

Home | Current Version | Previous Version | Text Only | Print | Product List | Glossary On
Versions: 1 2 3 4 5 6 7 8 9 10 11 12 13 14 15 16 17
000
FTUS43 KGRB 260351 AAB
TAFMTW
TAF AMD
KMTW 260351Z 2604/2624 15004KT 3SM -SHRA BR SCT007 OVC050
     FM260900 18005KT 5SM BR BKN006
     FM261500 21010G17KT P6SM SCT025 BKN040
     FM262300 16007KT P6SM SCT045 BKN250=

USA.gov is the U.S. government's official web portal to all federal, state and local government web resources and services.